Latest Weather Observations for Ivanhoe Airport

IDN60801

Issued at 12:32 pm EST Thursday 26 May 2016 (issued every 30 minutes, with the page automatically refreshed every 10 minutes)

About weather observations | Map of weather stations | Latest weather observations for NSW | Other Formats
Station Details ID: 049000 Name: IVANHOE AERODROME AWS Lat: -32.88 Lon: 144.31 Height: 100.0 m
Data from the previous 72 hours. | See also: Recent months at Ivanhoe Airport
Date/Time
EST
Temp
°C
App
Temp
°C
Dew
Point
Rel
Hum
%
Delta-T
°C
Wind Press
QNH
hPa
Press
MSL
hPa
Rain
since 9 am
mm
Dir
 
Spd
km/h
Gust
km/h
Spd
kts
Gust
kts
26/12:30pm 15.3 13.1 13.2 87 1.2 W 17 20 9 11 1006.2 1006.1 0.0
26/12:00pm 15.1 13.2 13.1 88 1.1 W 15 20 8 11 1006.3 1006.2 0.0
26/11:30am 14.5 12.7 13.4 93 0.6 W 15 20 8 11 1006.6 1006.5 0.0
26/11:00am 14.0 12.0 13.8 99 0.1 WNW 17 24 9 13 1006.9 1006.8 0.0
26/10:30am 14.0 12.0 13.8 99 0.1 WNW 17 26 9 14 1007.2 1007.1 0.0
26/10:00am 13.1 11.5 12.9 99 0.1 NW 13 17 7 9 1007.6 1007.5 0.0
26/09:30am 12.6 10.9 12.4 99 0.1 NW 13 19 7 10 1007.6 1007.5 0.0
26/09:00am 12.6 10.9 12.4 99 0.1 NW 13 20 7 11 1007.7 1007.6 12.2
26/08:30am 12.5 10.4 12.3 99 0.1 NNW 15 20 8 11 1007.4 1007.3 12.2
26/08:00am 12.4 9.9 12.2 99 0.1 NNW 17 24 9 13 1007.1 1007.0 12.2
26/07:30am 12.2 9.2 12.0 99 0.1 NNW 19 28 10 15 1007.0 1006.9 12.2
26/07:00am 12.0 9.3 11.8 99 0.1 NNW 17 24 9 13 1007.3 1007.2 12.2
26/06:30am 11.9 8.6 11.7 99 0.1 NW 20 30 11 16 1007.1 1007.0 12.0
26/06:00am 12.0 9.0 11.8 99 0.1 NW 19 24 10 13 1007.0 1006.9 11.8
26/05:30am 12.1 9.3 11.5 96 0.3 NNW 17 24 9 13 1007.0 1006.9 11.6
26/05:00am 12.3 9.1 11.2 93 0.6 NNW 19 28 10 15 1006.4 1006.3 11.6
26/04:30am 12.0 9.2 11.2 95 0.4 N 17 24 9 13 1006.7 1006.6 11.6
26/04:00am 11.5 7.6 10.7 95 0.4 N 22 30 12 16 1006.7 1006.6 11.6
26/03:30am 11.6 7.7 10.7 94 0.5 N 22 28 12 15 1007.4 1007.3 11.6
26/03:00am 11.3 7.1 11.0 98 0.2 N 24 37 13 20 1008.3 1008.2 11.0
26/02:30am 11.4 7.8 10.6 95 0.4 N 20 28 11 15 1009.1 1009.0 10.0
26/02:00am 11.5 7.9 10.4 93 0.6 N 20 33 11 18 1009.5 1009.4 9.8
26/01:30am 11.4 7.8 10.5 94 0.5 N 20 32 11 17 1009.6 1009.5 9.8
26/01:00am 11.2 6.8 10.4 95 0.4 N 24 37 13 20 1009.8 1009.7 9.6
26/12:30am 11.2 6.9 10.7 97 0.3 N 24 35 13 19 1010.8 1010.7 9.6
26/12:00am 11.1 6.4 10.6 97 0.3 N 26 39 14 21 1011.1 1011.0 9.4
 
Date/Time
EST
Temp
°C
App
Temp
°C
Dew
Point
Rel
Hum
%
Delta-T
°C
Wind Press
QNH
hPa
Press
MSL
hPa
Rain
since 9 am
mm
Dir
 
Spd
km/h
Gust
km/h
Spd
kts
Gust
kts
25/11:30pm 11.2 7.2 10.6 96 0.3 N 22 33 12 18 1012.0 1011.9 8.4
25/11:00pm 11.4 8.0 11.1 98 0.2 N 20 30 11 16 1011.9 1011.8 7.4
25/10:30pm 11.1 7.6 10.8 98 0.2 N 20 28 11 15 1011.2 1011.1 7.4
25/10:00pm 10.9 8.2 10.4 97 0.3 N 15 20 8 11 1012.1 1012.0 7.0
25/09:30pm 11.0 7.9 10.2 95 0.4 NNW 17 22 9 12 1013.3 1013.3 4.8
25/09:00pm 12.1 8.4 9.5 84 1.3 N 19 30 10 16 1012.6 1012.6 2.2
25/08:30pm 12.9 9.6 9.5 80 1.7 N 17 22 9 12 1012.0 1011.9 1.6
25/08:00pm 12.6 9.4 10.0 84 1.3 NNE 17 22 9 12 1012.0 1011.9 1.6
25/07:30pm 12.4 9.8 10.6 89 0.9 NNE 15 19 8 10 1012.2 1012.2 1.6
25/07:00pm 12.1 10.7 10.8 92 0.7 NNE 9 13 5 7 1012.6 1012.6 1.6
25/06:30pm 12.0 10.8 10.4 90 0.8 N 7 9 4 5 1013.0 1013.0 1.6
25/06:00pm 12.0 10.4 10.1 88 1.0 N 9 13 5 7 1013.2 1013.2 1.4
25/05:30pm 12.7 11.5 10.4 86 1.2 N 7 9 4 5 1013.5 1013.5 1.2
25/05:00pm 13.7 12.4 11.2 85 1.3 NW 9 13 5 7 1014.3 1014.3 0.8
25/04:30pm 14.7 15.1 11.3 80 1.8 CALM 0 0 0 0 1014.2 1014.2 0.4
25/04:00pm 15.1 15.0 9.5 69 2.9 CALM 0 0 0 0 1014.5 1014.5 0.2
25/03:30pm 15.6 15.0 9.1 65 3.4 NW 2 6 1 3 1014.5 1014.5 0.2
25/03:00pm 16.5 13.6 6.6 52 4.9 NW 11 15 6 8 1014.7 1014.7 0.0
25/02:30pm 17.4 13.4 5.0 44 6.0 NW 15 20 8 11 1014.7 1014.7 0.0
25/02:00pm 17.3 12.9 4.9 44 5.9 NNW 17 24 9 13 1014.8 1014.8 0.0
25/01:30pm 17.4 13.1 5.4 45 5.8 NNW 17 24 9 13 1015.0 1015.0 0.0
25/01:00pm 17.6 12.9 5.2 44 6.0 NNW 19 24 10 13 1015.4 1015.4 0.0
25/12:30pm 17.8 13.6 5.7 45 5.9 NNW 17 22 9 12 1015.7 1015.7 0.0
25/12:00pm 17.9 13.3 6.4 47 5.7 NNW 20 28 11 15 1016.2 1016.2 0.0
25/11:30am 17.2 12.6 6.4 49 5.3 N 20 28 11 15 1017.0 1016.9 0.0
25/11:00am 16.7 12.1 6.5 51 5.0 N 20 30 11 16 1017.4 1017.3 0.0
25/10:30am 15.3 11.4 7.3 59 4.0 NNE 17 22 9 12 1017.5 1017.4 0.0
25/10:00am 15.2 10.9 7.7 61 3.7 NNE 20 26 11 14 1017.9 1017.8 0.0
25/09:30am 14.0 9.6 7.5 65 3.2 NNE 20 28 11 15 1018.1 1018.0 0.0
25/09:00am 12.7 8.5 7.6 71 2.5 NNE 19 26 10 14 1018.3 1018.2 0.0
25/08:30am 9.3 6.4 6.7 84 1.2 NNE 11 13 6 7 1018.3 1018.2 0.0
25/08:00am 9.0 6.5 6.4 84 1.2 NNE 9 13 5 7 1018.1 1018.0 0.0
25/07:30am 8.9 5.6 6.3 84 1.2 NNE 13 15 7 8 1018.0 1017.9 0.0
25/07:00am 8.8 5.5 6.3 84 1.2 NNE 13 15 7 8 1017.9 1017.8 0.0
25/06:30am 8.6 4.9 6.1 84 1.1 NNE 15 19 8 10 1017.9 1017.8 0.0
25/06:00am 8.3 5.0 6.3 87 0.9 NNE 13 17 7 9 1018.1 1018.0 0.0
25/05:30am 7.7 4.3 5.8 88 0.9 NNE 13 15 7 8 1018.2 1018.1 0.0
25/05:00am 7.8 4.4 5.9 88 0.9 NNE 13 15 7 8 1018.3 1018.2 0.0
25/04:30am 7.8 4.7 5.6 86 1.0 N 11 13 6 7 1018.6 1018.5 0.0
25/04:00am 7.6 4.5 5.4 86 1.0 NNE 11 11 6 6 1018.7 1018.6 0.0
25/03:30am 7.9 4.8 5.5 85 1.1 NNE 11 11 6 6 1019.0 1018.9 0.0
25/03:00am 7.9 4.7 5.2 83 1.2 N 11 13 6 7 1019.3 1019.2 0.0
25/02:30am 8.0 4.9 5.6 85 1.1 NNE 11 11 6 6 1019.2 1019.1 0.0
25/02:00am 8.1 4.6 5.4 83 1.2 NNE 13 13 7 7 1019.3 1019.2 0.0
25/01:30am 8.6 5.1 5.4 80 1.4 NNE 13 13 7 7 1019.5 1019.4 0.0
25/01:00am 9.2 5.7 5.6 78 1.6 NNE 13 13 7 7 1020.0 1019.9 0.0
25/12:30am 10.5 7.9 6.1 74 2.1 N 9 11 5 6 1020.4 1020.3 0.0
25/12:00am 11.2 8.6 6.1 71 2.4 NNE 9 11 5 6 1020.2 1020.1 0.0
 
Date/Time
EST
Temp
°C
App
Temp
°C
Dew
Point
Rel
Hum
%
Delta-T
°C
Wind Press
QNH
hPa
Press
MSL
hPa
Rain
since 9 am
mm
Dir
 
Spd
km/h
Gust
km/h
Spd
kts
Gust
kts
24/11:30pm 10.6 8.0 6.2 74 2.1 NNE 9 11 5 6 1020.4 1020.3 0.0
24/11:00pm 10.8 7.5 6.2 73 2.1 NNE 13 13 7 7 1020.4 1020.3 0.0
24/10:30pm 11.4 8.4 5.9 69 2.6 N 11 13 6 7 1020.8 1020.8 0.0
24/10:00pm 12.4 9.4 6.2 66 2.9 NNW 11 11 6 6 1021.3 1021.3 0.0
24/09:30pm 12.9 10.0 6.5 65 3.1 N 11 11 6 6 1021.3 1021.3 0.0
24/09:00pm 12.6 9.7 6.6 67 2.9 N 11 11 6 6 1021.4 1021.4 0.0
24/08:30pm 12.0 9.1 6.3 68 2.7 N 11 13 6 7 1021.3 1021.3 0.0
24/08:00pm 12.8 10.4 6.8 67 2.9 NNW 9 11 5 6 1021.3 1021.3 0.0
24/07:30pm 12.3 10.3 7.2 71 2.5 SSE 7 17 4 9 1021.1 1021.1 0.0
24/07:00pm 13.6 11.7 7.4 66 3.0 S 7 7 4 4 1021.2 1021.2 0.0
24/06:30pm 13.9 11.9 7.2 64 3.3 S 7 9 4 5 1021.0 1021.0 0.0
24/06:00pm 14.2 12.3 6.8 61 3.6 S 6 7 3 4 1020.8 1020.8 0.0
24/05:30pm 15.5 13.4 6.8 56 4.3 S 7 9 4 5 1020.6 1020.6 0.0
24/05:00pm 17.3 14.9 7.1 51 5.1 S 9 11 5 6 1020.6 1020.6 0.0
24/04:30pm 18.0 15.2 6.8 48 5.6 SSW 11 15 6 8 1020.8 1020.8 0.0
24/04:00pm 18.4 15.6 6.9 47 5.8 SSW 11 17 6 9 1020.8 1020.8 0.0
24/03:30pm 18.6 16.0 7.7 49 5.6 SSW 11 17 6 9 1021.0 1021.0 0.0
24/03:00pm 19.0 16.7 7.4 47 5.9 W 9 17 5 9 1021.0 1021.0 0.0
24/02:30pm 18.7 16.0 7.2 47 5.8 W 11 17 6 9 1021.1 1021.1 0.0
24/02:00pm 18.4 16.8 8.1 51 5.3 SW 6 19 3 10 1021.5 1021.5 0.0
24/01:30pm 17.7 15.2 8.3 54 4.8 SW 11 17 6 9 1021.7 1021.7 0.0
24/01:00pm 17.3 15.7 8.7 57 4.4 SW 7 11 4 6 1022.4 1022.4 0.0
24/12:30pm 17.3 15.7 8.7 57 4.4 SSW 7 17 4 9 1022.9 1022.9 0.0
24/12:00pm 17.2 15.3 8.9 58 4.3 WSW 9 15 5 8 1023.4 1023.4 0.0
24/11:30am 16.8 14.8 8.8 59 4.1 SSW 9 13 5 7 1024.1 1024.1 0.0
24/11:00am 16.4 15.0 9.6 64 3.5 SSW 7 13 4 7 1024.5 1024.5 0.0
24/10:30am 15.5 14.1 8.7 64 3.5 SW 6 11 3 6 1024.8 1024.8 0.0
24/10:00am 14.4 13.4 7.2 62 3.5 W 2 6 1 3 1024.7 1024.7 0.0
24/09:30am 13.1 11.8 6.2 63 3.3 W 2 6 1 3 1024.4 1024.4 0.0
24/09:00am 11.8 10.0 5.4 65 3.0 WSW 4 9 2 5 1024.4 1024.4 0.0
24/08:30am 10.4 9.2 4.5 67 2.7 CALM 0 0 0 0 1024.1 1024.1 0.0
24/08:00am 8.5 5.8 3.9 73 2.0 W 7 9 4 5 1024.0 1024.0 0.0
24/07:30am 7.1 4.3 3.0 75 1.7 SW 7 9 4 5 1023.6 1023.6 0.0
24/07:00am 6.9 3.7 3.0 76 1.6 WSW 9 11 5 6 1023.2 1023.2 0.0
24/06:30am 6.7 3.5 2.8 76 1.6 WSW 9 11 5 6 1023.0 1023.0 0.0
24/06:00am 7.0 3.4 2.9 75 1.7 W 11 11 6 6 1022.8 1022.8 0.0
24/05:30am 7.0 3.7 2.7 74 1.8 WNW 9 11 5 6 1022.7 1022.7 0.0
24/05:00am 7.4 4.1 2.7 72 2.0 WNW 9 11 5 6 1022.5 1022.5 0.0
24/04:30am 7.5 4.3 2.8 72 2.0 WNW 9 11 5 6 1022.5 1022.5 0.0
24/04:00am 7.4 3.8 2.7 72 2.0 WNW 11 11 6 6 1022.5 1022.5 0.0
24/03:30am 8.0 4.8 2.9 70 2.2 WNW 9 11 5 6 1022.7 1022.7 0.0
24/03:00am 7.9 4.7 2.8 70 2.1 WNW 9 11 5 6 1022.9 1022.9 0.0
24/02:30am 8.1 4.5 3.0 70 2.2 WNW 11 13 6 7 1022.9 1022.9 0.0
24/02:00am 8.4 4.8 2.8 68 2.4 WNW 11 11 6 6 1023.1 1023.1 0.0
24/01:30am 8.9 5.3 3.1 67 2.5 WNW 11 11 6 6 1023.1 1023.1 0.0
24/01:00am 8.7 5.5 2.9 67 2.5 WNW 9 11 5 6 1023.3 1023.3 0.0
24/12:30am 8.5 4.9 2.9 68 2.4 WNW 11 11 6 6 1023.2 1023.2 0.0
24/12:00am 9.9 6.8 3.4 64 2.8 W 9 13 5 7 1023.3 1023.3 0.0
 
Date/Time
EST
Temp
°C
App
Temp
°C
Dew
Point
Rel
Hum
%
Delta-T
°C
Wind Press
QNH
hPa
Press
MSL
hPa
Rain
since 9 am
mm
Dir
 
Spd
km/h
Gust
km/h
Spd
kts
Gust
kts
23/11:30pm 10.0 6.8 3.1 62 3.0 WNW 9 9 5 5 1023.3 1023.3 0.0
23/11:00pm 10.1 6.9 2.9 61 3.1 ESE 9 9 5 5 1023.3 1023.3 0.0
23/10:30pm 10.6 7.4 3.2 60 3.2 ESE 9 11 5 6 1023.4 1023.4 0.0
23/10:00pm 10.6 7.8 3.2 60 3.2 ESE 7 9 4 5 1023.5 1023.5 0.0
23/09:30pm 10.3 8.8 3.1 61 3.1 CALM 0 0 0 0 1023.4 1023.4 0.0
23/09:00pm 9.5 8.1 3.3 65 2.7 CALM 0 0 0 0 1023.2 1023.2 0.0
23/08:30pm 10.4 9.0 3.7 63 3.0 CALM 0 0 0 0 1023.2 1023.2 0.0
23/08:00pm 11.8 10.4 3.6 57 3.6 CALM 0 0 0 0 1023.1 1023.1 0.0
23/07:30pm 11.8 10.4 3.6 57 3.7 CALM 0 0 0 0 1022.8 1022.8 0.0
23/07:00pm 12.0 10.7 4.0 58 3.6 CALM 0 0 0 0 1022.8 1022.8 0.0
23/06:30pm 12.6 11.2 3.3 53 4.2 CALM 0 0 0 0 1022.5 1022.5 0.0
23/06:00pm 14.0 12.6 3.5 49 4.7 CALM 0 0 0 0 1022.4 1022.4 0.0
23/05:30pm 15.3 12.8 3.5 45 5.4 SW 6 7 3 4 1022.2 1022.2 0.0
23/05:00pm 16.9 13.7 3.2 40 6.3 SSW 9 15 5 8 1022.0 1022.0 0.0
23/04:30pm 17.8 13.4 2.9 37 6.9 SSW 15 20 8 11 1021.9 1021.9 0.0
23/04:00pm 18.2 13.9 3.3 37 6.9 SSW 15 20 8 11 1021.7 1021.7 0.0
23/03:30pm 18.1 13.5 3.6 38 6.8 SSW 17 22 9 12 1021.5 1021.5 0.0
23/03:00pm 18.2 13.2 3.7 38 6.8 SSW 19 26 10 14 1021.5 1021.5 0.0
23/02:30pm 18.1 13.2 3.9 39 6.7 SSW 19 26 10 14 1021.6 1021.6 0.0
23/02:00pm 17.8 12.7 4.0 40 6.5 SSW 20 33 11 18 1021.9 1021.9 0.0
23/01:30pm 17.6 12.8 5.5 45 5.9 SSW 20 33 11 18 1022.3 1022.3 0.0
23/01:00pm 17.2 12.1 5.8 47 5.5 SSW 22 32 12 17 1022.3 1022.3 0.0

Other Formats:

Comma delimited format used in spreadsheet applications
http://www.bom.gov.au/fwo/IDN60801/IDN60801.95697.axf

JavaScript Object Notation format (JSON) in row-major order
http://www.bom.gov.au/fwo/IDN60801/IDN60801.95697.json